Time;durP1;ratioP1;P1;durP2;ratioP2;P2;SDS_P1;SDS_P2;PMS_P1;PMS_P2;Temp;Humidity;BMP_temperature;BMP_pressure;BME280_temperature;BME280_humidity;BME280_pressure;Samples;Min_cycle;Max_cycle;Signal;HPM_P1;HPM_P2
2021/07/14 00:01:03;;;;;;;0.40;0.20;;;;;;;18.36;100.00;99636.47;5021635;28;20503;-82
2021/07/14 00:03:30;;;;;;;0.40;0.20;;;;;;;18.31;100.00;99646.72;5020321;28;20455;-82
2021/07/14 00:05:57;;;;;;;0.40;0.20;;;;;;;18.34;100.00;99654.56;5024009;23;20474;-78
2021/07/14 00:08:23;;;;;;;0.40;0.20;;;;;;;18.35;100.00;99654.44;5007278;28;20890;-78
2021/07/14 00:10:51;;;;;;;0.40;0.20;;;;;;;18.28;100.00;99661.25;5036862;28;20457;-78
2021/07/14 00:24:02;;;;;;;0.40;0.20;;;;;;;18.26;100.00;99652.44;5004522;28;20435;-78
2021/07/14 00:26:29;;;;;;;0.40;0.20;;;;;;;18.43;100.00;99648.53;5013096;28;20480;-77
2021/07/14 00:28:55;;;;;;;0.40;0.20;;;;;;;18.39;100.00;99636.28;4999483;28;21022;-77
2021/07/14 00:31:22;;;;;;;0.40;0.37;;;;;;;18.57;100.00;99652.94;5006368;28;20493;-77
2021/07/14 00:33:49;;;;;;;0.50;0.40;;;;;;;18.43;100.00;99655.75;5000365;28;20472;-77
2021/07/14 00:36:16;;;;;;;0.40;0.20;;;;;;;18.40;100.00;99664.91;5012108;28;20468;-76
2021/07/14 00:38:43;;;;;;;0.40;0.20;;;;;;;18.46;100.00;99664.47;5009496;28;20494;-77
2021/07/14 00:41:10;;;;;;;0.40;0.20;;;;;;;18.37;100.00;99665.13;5003431;28;20439;-76
2021/07/14 00:43:36;;;;;;;0.40;0.20;;;;;;;18.30;100.00;99674.59;5015277;28;20453;-76
2021/07/14 00:46:22;;;;;;;0.40;0.20;;;;;;;18.33;100.00;99677.06;5003336;28;20431;-76
2021/07/14 00:48:50;;;;;;;0.40;0.20;;;;;;;18.27;100.00;99662.22;5009485;28;20517;-76
2021/07/14 00:51:18;;;;;;;0.70;0.70;;;;;;;18.31;100.00;99658.34;5013897;28;20423;-76
2021/07/14 00:53:44;;;;;;;0.40;0.30;;;;;;;18.28;100.00;99649.63;5002373;28;20514;-77
2021/07/14 00:56:11;;;;;;;0.40;0.20;;;;;;;18.26;100.00;99646.19;4999905;28;20579;-77
2021/07/14 00:58:38;;;;;;;0.40;0.20;;;;;;;18.38;100.00;99657.91;5013099;28;20477;-77
2021/07/14 01:01:05;;;;;;;0.40;0.20;;;;;;;18.32;100.00;99645.75;5013017;28;20456;-77
2021/07/14 01:03:40;;;;;;;0.40;0.20;;;;;;;18.29;100.00;99654.03;5009461;28;20508;-77
2021/07/14 01:06:16;;;;;;;0.40;0.20;;;;;;;18.22;100.00;99640.13;5037688;28;21001;-76
2021/07/14 01:08:54;;;;;;;0.40;0.20;;;;;;;18.06;100.00;99636.81;5038515;28;20517;-77
2021/07/14 01:11:24;;;;;;;0.40;0.20;;;;;;;18.06;100.00;99629.59;5002170;28;20432;-77
2021/07/14 01:13:50;;;;;;;0.40;0.20;;;;;;;18.06;100.00;99634.97;5006034;28;20474;-77
2021/07/14 01:16:22;;;;;;;0.40;0.20;;;;;;;18.06;100.00;99626.91;5032788;28;20460;-76
2021/07/14 01:19:04;;;;;;;1.07;1.07;;;;;;;18.03;100.00;99629.81;5013228;28;20449;-77
2021/07/14 01:21:35;;;;;;;0.40;0.20;;;;;;;18.13;100.00;99623.81;5009495;28;20878;-77
2021/07/14 01:24:31;;;;;;;0.40;0.20;;;;;;;18.16;100.00;99616.38;5007403;28;20436;-77
2021/07/14 01:27:10;;;;;;;0.47;0.30;;;;;;;18.17;100.00;99603.78;5002407;28;20472;-77
2021/07/14 01:29:46;;;;;;;0.87;0.87;;;;;;;18.18;100.00;99614.44;5006200;28;20484;-77
2021/07/14 01:32:14;;;;;;;0.40;0.20;;;;;;;18.20;100.00;99611.63;5012270;28;20431;-77
2021/07/14 01:34:49;;;;;;;2.30;0.87;;;;;;;18.15;100.00;99617.34;5010283;28;20465;-76
2021/07/14 01:37:19;;;;;;;0.40;0.20;;;;;;;18.03;100.00;99602.94;5002398;28;20451;-77
2021/07/14 01:39:47;;;;;;;0.40;0.20;;;;;;;18.10;100.00;99602.50;5009208;28;20836;-76
2021/07/14 01:42:14;;;;;;;0.40;0.20;;;;;;;18.15;100.00;99603.03;5005467;28;20953;-77
2021/07/14 01:44:42;;;;;;;0.50;0.50;;;;;;;18.17;100.00;99609.16;5009356;28;20465;-77
2021/07/14 01:47:09;;;;;;;0.40;0.20;;;;;;;18.09;100.00;99609.69;5006726;28;20444;-77
2021/07/14 01:49:38;;;;;;;0.40;0.20;;;;;;;18.14;100.00;99625.53;5037380;28;20468;-77
2021/07/14 01:52:09;;;;;;;0.40;0.20;;;;;;;17.91;100.00;99608.31;5038203;28;20459;-77
2021/07/14 01:54:37;;;;;;;0.40;0.20;;;;;;;18.12;100.00;99612.19;5002519;28;20865;-76
2021/07/14 01:57:05;;;;;;;0.40;0.20;;;;;;;18.13;100.00;99607.66;4999387;28;20529;-77
2021/07/14 01:59:35;;;;;;;0.77;0.70;;;;;;;18.12;100.00;99619.41;5040514;28;20998;-77
2021/07/14 02:02:04;;;;;;;1.33;0.50;;;;;;;18.12;100.00;99622.94;5007043;28;21015;-77
2021/07/14 02:04:33;;;;;;;0.40;0.30;;;;;;;18.05;100.00;99627.03;5002491;28;20534;-77
2021/07/14 02:07:09;;;;;;;0.40;0.20;;;;;;;18.06;100.00;99617.97;5011047;28;20443;-77
2021/07/14 02:09:38;;;;;;;0.40;0.20;;;;;;;18.11;100.00;99617.69;5006547;28;21002;-77
2021/07/14 02:12:14;;;;;;;0.40;0.20;;;;;;;18.16;100.00;99618.19;5011949;28;20858;-77
2021/07/14 02:14:48;;;;;;;0.40;0.20;;;;;;;18.03;100.00;99611.00;5010860;28;20460;-77
2021/07/14 02:17:21;;;;;;;0.40;0.23;;;;;;;18.11;100.00;99621.22;4999128;28;20605;-77
2021/07/14 02:19:59;;;;;;;0.40;0.20;;;;;;;18.15;100.00;99622.72;5011950;28;20486;-77
2021/07/14 02:22:27;;;;;;;0.40;0.20;;;;;;;18.13;100.00;99618.44;5013692;28;20431;-77
2021/07/14 02:24:54;;;;;;;0.63;0.57;;;;;;;18.01;100.00;99620.16;5013706;28;20467;-77
2021/07/14 02:27:21;;;;;;;0.40;0.20;;;;;;;17.90;100.00;99618.19;4998425;28;20463;-77
2021/07/14 02:29:48;;;;;;;0.40;0.20;;;;;;;17.99;100.00;99622.94;5009226;28;21129;-77
2021/07/14 02:32:20;;;;;;;0.50;0.50;;;;;;;17.97;100.00;99608.75;5042190;28;20457;-77
2021/07/14 02:34:49;;;;;;;0.40;0.30;;;;;;;17.95;100.00;99610.66;5005549;28;20773;-76
2021/07/14 02:37:26;;;;;;;0.40;0.20;;;;;;;17.90;100.00;99614.66;5008379;28;20476;-76
2021/07/14 02:39:57;;;;;;;0.40;0.20;;;;;;;17.91;100.00;99609.16;5011033;28;20427;-77
2021/07/14 02:42:29;;;;;;;0.40;0.20;;;;;;;17.97;100.00;99611.44;5007053;28;20452;-77
2021/07/14 02:45:05;;;;;;;1.27;0.50;;;;;;;18.03;100.00;99623.59;5012409;28;20501;-77
2021/07/14 02:47:41;;;;;;;0.70;0.70;;;;;;;17.99;100.00;99617.56;5008644;28;20476;-76
2021/07/14 02:50:14;;;;;;;0.40;0.20;;;;;;;17.99;100.00;99620.25;5012088;28;20975;-77
2021/07/14 02:52:45;;;;;;;0.40;0.30;;;;;;;17.92;100.00;99618.09;5000534;28;20440;-77
2021/07/14 02:55:16;;;;;;;0.40;0.30;;;;;;;17.92;100.00;99623.47;5006538;28;20461;-77
2021/07/14 02:57:44;;;;;;;0.40;0.20;;;;;;;18.02;100.00;99624.56;5040912;28;20469;-78
2021/07/14 03:00:12;;;;;;;0.40;0.20;;;;;;;17.98;100.00;99609.59;5003588;28;20449;-78
2021/07/14 03:02:39;;;;;;;0.40;0.30;;;;;;;17.93;100.00;99622.50;5006130;28;20494;-77
2021/07/14 03:05:06;;;;;;;0.40;0.30;;;;;;;17.96;100.00;99617.78;5005828;28;20444;-77
2021/07/14 03:07:35;;;;;;;1.57;0.67;;;;;;;17.88;100.00;99605.84;5032372;28;20451;-77
2021/07/14 03:10:02;;;;;;;0.40;0.20;;;;;;;17.95;100.00;99609.78;5003486;28;20487;-77
2021/07/14 03:12:30;;;;;;;0.60;0.60;;;;;;;17.85;100.00;99595.31;5003417;28;20460;-77
2021/07/14 03:15:01;;;;;;;0.40;0.20;;;;;;;17.80;100.00;99595.59;4999450;28;20431;-78
2021/07/14 03:17:31;;;;;;;0.40;0.20;;;;;;;17.81;100.00;99597.31;5042202;28;21043;-78
2021/07/14 03:20:00;;;;;;;0.40;0.20;;;;;;;17.73;100.00;99597.88;4997878;28;20502;-77
2021/07/14 03:22:28;;;;;;;0.40;0.20;;;;;;;17.80;100.00;99597.44;5039031;28;20428;-78
2021/07/14 03:24:57;;;;;;;0.40;0.20;;;;;;;17.77;100.00;99599.38;5007695;28;20461;-78
2021/07/14 03:27:25;;;;;;;0.40;0.20;;;;;;;17.77;100.00;99599.38;4997773;28;20477;-78
2021/07/14 03:29:53;;;;;;;0.40;0.40;;;;;;;17.76;100.00;99599.47;5015374;28;20558;-77
2021/07/14 03:32:20;;;;;;;0.40;0.20;;;;;;;17.72;100.00;99608.72;5030936;28;20427;-78
2021/07/14 03:34:47;;;;;;;0.40;0.20;;;;;;;17.83;100.00;99605.31;5012014;28;20424;-77
2021/07/14 03:37:15;;;;;;;0.40;0.20;;;;;;;17.77;100.00;99596.69;5008477;28;20530;-78
2021/07/14 03:39:42;;;;;;;0.40;0.20;;;;;;;17.84;100.00;99609.72;5035218;28;20918;-78
2021/07/14 03:42:15;;;;;;;8.03;0.87;;;;;;;17.76;100.00;99612.91;5007449;28;20423;-78
2021/07/14 03:44:46;;;;;;;0.40;0.20;;;;;;;17.81;100.00;99621.50;5014503;28;20957;-78
2021/07/14 03:47:15;;;;;;;0.40;0.20;;;;;;;17.77;100.00;99622.69;5014950;28;20512;-78
2021/07/14 03:49:43;;;;;;;0.40;0.20;;;;;;;17.84;100.00;99629.41;5009174;28;20499;-77
2021/07/14 03:52:12;;;;;;;1.13;1.13;;;;;;;17.82;100.00;99636.72;5012451;28;20461;-77
2021/07/14 03:54:39;;;;;;;0.40;0.20;;;;;;;17.83;100.00;99638.44;5035968;28;20470;-78
2021/07/14 03:57:09;;;;;;;0.40;0.20;;;;;;;17.84;100.00;99633.91;5031502;28;20523;-77
2021/07/14 03:59:39;;;;;;;0.40;0.20;;;;;;;17.85;100.00;99625.72;5003820;28;20544;-78
2021/07/14 04:02:11;;;;;;;0.40;0.20;;;;;;;17.74;100.00;99622.91;5043997;28;20460;-78
2021/07/14 04:04:39;;;;;;;0.40;0.20;;;;;;;17.75;100.00;99635.41;5008031;28;20486;-78
2021/07/14 04:07:14;;;;;;;0.40;0.20;;;;;;;17.89;100.00;99638.00;5011049;28;20447;-78
2021/07/14 04:09:48;;;;;;;0.40;0.20;;;;;;;17.84;100.00;99639.28;5001697;28;20470;-78
2021/07/14 04:12:16;;;;;;;0.40;0.20;;;;;;;17.86;100.00;99640.03;5014074;28;20526;-78
2021/07/14 04:14:43;;;;;;;0.40;0.20;;;;;;;17.85;100.00;99636.50;5014310;28;20822;-79
2021/07/14 04:17:11;;;;;;;0.40;0.20;;;;;;;17.76;100.00;99629.03;5009469;28;20831;-78
2021/07/14 04:19:40;;;;;;;0.40;0.20;;;;;;;17.83;100.00;99637.56;5011522;28;20445;-79
2021/07/14 04:22:09;;;;;;;0.40;0.20;;;;;;;17.88;100.00;99633.59;5016012;28;20431;-79
2021/07/14 04:24:35;;;;;;;0.40;0.20;;;;;;;17.89;100.00;99643.38;5034418;28;20432;-77
2021/07/14 04:27:02;;;;;;;0.40;0.30;;;;;;;17.90;100.00;99639.72;5013543;28;20473;-78
2021/07/14 04:29:29;;;;;;;0.40;0.20;;;;;;;17.96;100.00;99631.22;5013670;28;20860;-78
2021/07/14 04:31:56;;;;;;;0.43;0.30;;;;;;;17.92;100.00;99620.78;5005684;28;20430;-78
2021/07/14 04:34:23;;;;;;;0.40;0.20;;;;;;;17.71;100.00;99612.38;5012843;28;20970;-78
2021/07/14 04:36:50;;;;;;;0.97;0.97;;;;;;;17.83;100.00;99622.28;5045245;28;20474;-78
2021/07/14 04:39:17;;;;;;;0.40;0.20;;;;;;;17.87;100.00;99621.09;5012031;28;20462;-78
2021/07/14 04:41:44;;;;;;;0.40;0.20;;;;;;;17.90;100.00;99630.78;5014279;28;20502;-78
2021/07/14 04:44:12;;;;;;;0.40;0.20;;;;;;;17.98;100.00;99625.75;5014142;28;20448;-77
2021/07/14 04:46:39;;;;;;;0.40;0.20;;;;;;;17.90;100.00;99625.41;5046888;28;20443;-78
2021/07/14 04:49:08;;;;;;;0.40;0.30;;;;;;;17.98;100.00;99623.91;5046689;28;20452;-78
2021/07/14 04:51:34;;;;;;;0.40;0.20;;;;;;;17.92;100.00;99613.56;5047027;28;20427;-78
2021/07/14 04:54:01;;;;;;;0.40;0.20;;;;;;;18.00;100.00;99615.72;5010822;28;20423;-78
2021/07/14 04:56:28;;;;;;;0.40;0.20;;;;;;;18.01;100.00;99612.94;4996426;28;20973;-78
2021/07/14 04:58:54;;;;;;;0.40;0.20;;;;;;;18.02;100.00;99620.03;5011972;28;20831;-78
2021/07/14 05:01:21;;;;;;;0.40;0.20;;;;;;;18.01;100.00;99621.00;5046762;28;20452;-78
2021/07/14 05:03:48;;;;;;;0.50;0.50;;;;;;;18.06;100.00;99626.06;5010147;28;20436;-78
2021/07/14 05:06:17;;;;;;;0.40;0.20;;;;;;;17.97;100.00;99629.41;5005359;28;20891;-78
2021/07/14 05:08:45;;;;;;;0.40;0.20;;;;;;;18.05;100.00;99629.72;5031537;28;20434;-78
2021/07/14 05:11:13;;;;;;;0.40;0.20;;;;;;;17.98;100.00;99633.81;5002016;28;20557;-78
2021/07/14 05:13:40;;;;;;;0.40;0.20;;;;;;;18.09;100.00;99624.97;5013098;28;20435;-78
2021/07/14 05:16:09;;;;;;;0.40;0.20;;;;;;;17.96;100.00;99625.84;5035677;28;20461;-78
2021/07/14 05:18:37;;;;;;;0.40;0.20;;;;;;;18.06;100.00;99626.06;5014277;28;20928;-77
2021/07/14 05:21:04;;;;;;;0.40;0.27;;;;;;;17.99;100.00;99632.84;5014268;28;20432;-78
2021/07/14 05:23:31;;;;;;;0.40;0.20;;;;;;;18.07;100.00;99635.84;5001230;28;20482;-78
2021/07/14 05:25:59;;;;;;;0.40;0.20;;;;;;;17.91;100.00;99632.50;5011230;28;20431;-78
2021/07/14 05:28:26;;;;;;;0.40;0.30;;;;;;;18.00;100.00;99638.09;4995096;28;20458;-78
2021/07/14 05:30:53;;;;;;;0.40;0.20;;;;;;;18.10;100.00;99632.09;5007057;28;20466;-78
2021/07/14 05:33:20;;;;;;;0.50;0.40;;;;;;;18.12;100.00;99638.22;5012784;28;20460;-78
2021/07/14 05:35:47;;;;;;;0.40;0.20;;;;;;;18.11;100.00;99644.59;5013028;28;20427;-78
2021/07/14 05:38:23;;;;;;;0.40;0.30;;;;;;;18.32;100.00;99648.44;5013427;28;20451;-78
2021/07/14 05:40:51;;;;;;;0.40;0.20;;;;;;;18.14;100.00;99644.34;5008290;28;20506;-78
2021/07/14 05:43:18;;;;;;;0.40;0.30;;;;;;;18.16;100.00;99642.41;5003538;28;20432;-79
2021/07/14 05:45:46;;;;;;;1.00;1.00;;;;;;;18.14;100.00;99637.16;5011948;28;20485;-77
2021/07/14 05:48:13;;;;;;;0.40;0.20;;;;;;;18.05;100.00;99646.72;5045964;28;20504;-77
2021/07/14 05:50:41;;;;;;;0.50;0.40;;;;;;;18.14;100.00;99638.97;5004371;28;20531;-77
2021/07/14 05:53:07;;;;;;;0.40;0.20;;;;;;;18.09;100.00;99636.59;5013505;28;20438;-78
2021/07/14 05:55:34;;;;;;;0.40;0.20;;;;;;;18.16;100.00;99648.66;5028690;28;20511;-78
2021/07/14 05:58:01;;;;;;;0.40;0.20;;;;;;;18.08;100.00;99639.38;5004119;28;20990;-79
2021/07/14 06:00:29;;;;;;;2.03;0.57;;;;;;;18.13;100.00;99639.94;5012039;28;20424;-78
2021/07/14 06:02:56;;;;;;;0.50;0.43;;;;;;;18.14;100.00;99630.91;5013730;28;20909;-77
2021/07/14 06:05:27;;;;;;;0.40;0.20;;;;;;;18.18;100.00;99632.41;5004324;28;20472;-77
2021/07/14 06:07:54;;;;;;;0.60;0.60;;;;;;;18.21;100.00;99632.19;5013348;28;20481;-77
2021/07/14 06:10:20;;;;;;;0.40;0.20;;;;;;;18.12;100.00;99627.47;5039406;28;20485;-77
2021/07/14 06:12:47;;;;;;;0.40;0.20;;;;;;;18.33;100.00;99623.25;5004206;28;20469;-77
2021/07/14 06:15:14;;;;;;;0.40;0.20;;;;;;;18.22;100.00;99621.31;5011357;28;20454;-77
2021/07/14 06:17:40;;;;;;;0.40;0.20;;;;;;;18.23;100.00;99619.50;5013121;28;20535;-77
2021/07/14 06:20:08;;;;;;;0.40;0.20;;;;;;;18.18;100.00;99629.72;5005147;28;20949;-79
2021/07/14 06:22:35;;;;;;;0.40;0.20;;;;;;;18.36;100.00;99623.00;5012739;28;20482;-79
2021/07/14 06:25:03;;;;;;;0.40;0.20;;;;;;;18.18;100.00;99609.06;5012430;28;20860;-79
2021/07/14 06:27:43;;;;;;;0.40;0.20;;;;;;;18.25;100.00;99628.31;5012514;28;20454;-79
2021/07/14 06:30:12;;;;;;;0.40;0.30;;;;;;;18.19;100.00;99623.34;5008889;28;20492;-79
2021/07/14 06:32:40;;;;;;;0.40;0.20;;;;;;;18.24;100.00;99630.16;5013260;28;20435;-79
2021/07/14 06:35:09;;;;;;;0.40;0.20;;;;;;;18.25;100.00;99626.50;5046491;28;20938;-79
2021/07/14 06:37:38;;;;;;;0.40;0.20;;;;;;;18.47;100.00;99624.94;5014873;28;20538;-78
2021/07/14 06:40:07;;;;;;;0.40;0.30;;;;;;;18.33;100.00;99626.78;5000135;28;20455;-79
2021/07/14 06:42:34;;;;;;;0.40;0.37;;;;;;;18.40;100.00;99632.63;5009249;28;20932;-79
2021/07/14 06:45:01;;;;;;;0.40;0.30;;;;;;;18.38;100.00;99623.78;5004343;28;20824;-79
2021/07/14 06:47:27;;;;;;;0.40;0.20;;;;;;;18.37;100.00;99629.28;5007755;28;20444;-79
2021/07/14 06:49:54;;;;;;;0.40;0.20;;;;;;;18.46;100.00;99613.31;4996448;28;20488;-78
2021/07/14 06:52:21;;;;;;;0.40;0.20;;;;;;;18.57;100.00;99621.50;5007521;28;20589;-79
2021/07/14 06:54:47;;;;;;;0.40;0.20;;;;;;;18.45;100.00;99622.38;5009408;28;20486;-80
2021/07/14 06:57:14;;;;;;;0.40;0.20;;;;;;;18.74;100.00;99625.66;5035991;28;20473;-80
2021/07/14 06:59:41;;;;;;;0.40;0.20;;;;;;;18.50;100.00;99614.84;5039457;28;20424;-80
2021/07/14 07:02:08;;;;;;;0.40;0.20;;;;;;;18.63;100.00;99614.78;5004010;28;20495;-80
2021/07/14 07:04:35;;;;;;;0.40;0.20;;;;;;;18.59;100.00;99619.53;5047190;28;20506;-80
2021/07/14 07:07:01;;;;;;;0.40;0.20;;;;;;;18.70;100.00;99617.94;5015660;28;20997;-80
2021/07/14 07:09:28;;;;;;;0.77;0.77;;;;;;;18.74;100.00;99625.66;5014969;28;20435;-80
2021/07/14 07:11:55;;;;;;;0.40;0.20;;;;;;;18.77;100.00;99620.06;5005452;28;20576;-80
2021/07/14 07:14:21;;;;;;;0.40;0.20;;;;;;;18.82;100.00;99625.13;5046801;28;20419;-80
2021/07/14 07:16:48;;;;;;;0.40;0.20;;;;;;;18.81;100.00;99623.41;5046073;28;20447;-79
2021/07/14 07:19:15;;;;;;;0.40;0.20;;;;;;;18.80;100.00;99617.16;5009004;28;20429;-79
2021/07/14 07:21:43;;;;;;;0.50;0.40;;;;;;;18.79;100.00;99617.28;5046394;28;20484;-79
2021/07/14 07:24:10;;;;;;;0.40;0.20;;;;;;;18.84;100.00;99612.41;5012396;28;20984;-79
2021/07/14 07:26:36;;;;;;;0.67;0.67;;;;;;;18.99;100.00;99608.56;5008956;28;20496;-78
2021/07/14 07:29:10;;;;;;;0.40;0.20;;;;;;;19.13;100.00;99599.47;5011956;28;20491;-78
2021/07/14 07:31:38;;;;;;;0.40;0.20;;;;;;;19.17;100.00;99606.34;5010557;28;20542;-78
2021/07/14 07:34:05;;;;;;;0.40;0.30;;;;;;;19.15;100.00;99603.75;5011986;28;20445;-79
2021/07/14 07:36:32;;;;;;;0.40;0.30;;;;;;;19.26;100.00;99607.50;5044302;28;20447;-79
2021/07/14 07:39:00;;;;;;;0.40;0.20;;;;;;;19.17;100.00;99599.09;4995546;28;20455;-79
2021/07/14 07:41:27;;;;;;;0.40;0.20;;;;;;;19.26;100.00;99583.22;5044448;28;20811;-79
2021/07/14 07:43:55;;;;;;;0.40;0.20;;;;;;;19.54;100.00;99574.75;5035456;28;20461;-80
2021/07/14 07:46:22;;;;;;;0.40;0.20;;;;;;;19.66;100.00;99579.25;4998600;28;20481;-80
2021/07/14 07:48:49;;;;;;;0.40;0.30;;;;;;;19.68;100.00;99589.91;5042198;28;20489;-80
2021/07/14 07:51:16;;;;;;;17.13;1.70;;;;;;;19.62;100.00;99591.25;5005790;28;20462;-80
2021/07/14 07:53:43;;;;;;;0.40;0.30;;;;;;;19.56;100.00;99605.19;5040353;28;20460;-80
2021/07/14 07:56:10;;;;;;;0.40;0.20;;;;;;;19.93;100.00;99610.44;5010541;28;20916;-80
2021/07/14 07:58:38;;;;;;;0.40;0.30;;;;;;;19.64;100.00;99602.78;4999195;28;20460;-80
2021/07/14 08:01:05;;;;;;;0.40;0.40;;;;;;;19.71;100.00;99612.09;5002198;28;20424;-79
2021/07/14 08:03:32;;;;;;;0.40;0.20;;;;;;;19.58;100.00;99619.41;5007575;28;20456;-80
2021/07/14 08:05:59;;;;;;;0.40;0.20;;;;;;;19.71;100.00;99622.03;5004449;28;20499;-80
2021/07/14 08:08:25;;;;;;;0.40;0.20;;;;;;;19.81;100.00;99617.63;5008060;28;20452;-81
2021/07/14 08:10:55;;;;;;;0.40;0.20;;;;;;;19.79;100.00;99625.00;5010056;28;20968;-81
2021/07/14 08:13:23;;;;;;;0.40;0.20;;;;;;;19.95;100.00;99630.06;5005139;28;20942;-80
2021/07/14 08:15:50;;;;;;;0.40;0.27;;;;;;;19.79;100.00;99625.84;5050815;28;20521;-81
2021/07/14 08:18:17;;;;;;;0.40;0.20;;;;;;;19.58;100.00;99627.50;5014853;28;20488;-81
2021/07/14 08:20:44;;;;;;;0.40;0.20;;;;;;;20.09;100.00;99619.91;5008219;28;20448;-80
2021/07/14 08:23:11;;;;;;;0.40;0.20;;;;;;;19.90;100.00;99624.16;5004927;28;20879;-81
2021/07/14 08:25:38;;;;;;;0.40;0.20;;;;;;;19.91;100.00;99615.97;5048968;28;20460;-81
2021/07/14 08:28:05;;;;;;;0.40;0.20;;;;;;;20.09;100.00;99621.75;5048078;28;20871;-81
2021/07/14 08:30:33;;;;;;;0.40;0.20;;;;;;;20.20;100.00;99618.19;5048830;28;20462;-81
2021/07/14 08:33:00;;;;;;;0.40;0.20;;;;;;;20.01;100.00;99613.38;5004805;28;20484;-81
2021/07/14 08:35:26;;;;;;;0.40;0.20;;;;;;;20.21;100.00;99618.06;5049062;28;20453;-81
2021/07/14 08:37:53;;;;;;;0.40;0.20;;;;;;;19.99;100.00;99620.72;5049184;28;20505;-81
2021/07/14 08:40:20;;;;;;;0.40;0.30;;;;;;;19.90;100.00;99616.06;5048633;28;20485;-81
2021/07/14 08:42:49;;;;;;;0.70;0.47;;;;;;;19.92;100.00;99606.88;5010983;28;20450;-80
2021/07/14 08:45:19;;;;;;;0.40;0.20;;;;;;;19.86;100.00;99617.28;5010302;28;20966;-81
2021/07/14 08:47:46;;;;;;;0.40;0.20;;;;;;;19.54;100.00;99620.59;5004444;28;20583;-80
2021/07/14 08:50:15;;;;;;;0.40;0.30;;;;;;;19.69;100.00;99624.84;5060241;28;20460;-82
2021/07/14 08:52:43;;;;;;;0.40;0.20;;;;;;;19.71;100.00;99622.03;5050150;28;20443;-82
2021/07/14 08:55:12;;;;;;;0.40;0.20;;;;;;;19.81;100.00;99628.44;5004389;28;20823;-81
2021/07/14 08:57:39;;;;;;;0.40;0.20;;;;;;;19.72;100.00;99624.59;5014866;28;20477;-81
2021/07/14 09:00:09;;;;;;;0.40;0.20;;;;;;;19.79;100.00;99628.56;5047430;28;20967;-81
2021/07/14 09:02:39;;;;;;;0.40;0.20;;;;;;;19.75;100.00;99624.38;5006751;28;20441;-82
2021/07/14 09:05:07;;;;;;;0.40;0.20;;;;;;;19.70;100.00;99629.25;5008120;28;20460;-82
2021/07/14 09:07:35;;;;;;;0.40;0.20;;;;;;;19.86;100.00;99630.75;5005305;28;20480;-81
2021/07/14 09:10:07;;;;;;;0.40;0.20;;;;;;;19.58;100.00;99622.09;5012031;28;20527;-81
2021/07/14 09:12:40;;;;;;;0.40;0.20;;;;;;;19.49;100.00;99607.47;5005120;28;20514;-81
2021/07/14 09:15:09;;;;;;;0.40;0.20;;;;;;;19.53;100.00;99618.88;4998391;28;20453;-80
2021/07/14 09:17:47;;;;;;;0.40;0.30;;;;;;;19.56;100.00;99628.59;5005778;28;20483;-82
2021/07/14 09:20:24;;;;;;;0.40;0.20;;;;;;;19.69;100.00;99630.22;5014669;28;20440;-81
2021/07/14 09:23:09;;;;;;;0.40;0.30;;;;;;;19.58;100.00;99619.41;5001235;28;20441;-81
2021/07/14 09:25:45;;;;;;;0.40;0.20;;;;;;;19.46;100.00;99629.28;5047673;28;20484;-80
2021/07/14 09:28:16;;;;;;;0.40;0.20;;;;;;;19.45;100.00;99648.25;5048082;28;20969;-81
2021/07/14 09:30:45;;;;;;;0.40;0.33;;;;;;;19.53;100.00;99646.69;5047306;28;20488;-81
2021/07/14 09:33:16;;;;;;;0.40;0.20;;;;;;;19.33;100.00;99662.66;5047719;28;20887;-81
2021/07/14 09:35:48;;;;;;;0.40;0.20;;;;;;;19.45;100.00;99669.81;5002695;28;20450;-81
2021/07/14 09:38:15;;;;;;;0.40;0.20;;;;;;;19.40;100.00;99670.16;5046856;28;20985;-80
2021/07/14 09:40:44;;;;;;;0.40;0.40;;;;;;;19.28;100.00;99668.38;5016953;28;20457;-80
2021/07/14 09:43:16;;;;;;;0.40;0.20;;;;;;;19.24;100.00;99674.97;5014459;28;20453;-81
2021/07/14 09:45:56;;;;;;;0.40;0.20;;;;;;;19.29;100.00;99675.47;5011745;28;20427;-80
2021/07/14 09:48:29;;;;;;;0.40;0.30;;;;;;;19.28;100.00;99679.16;5014035;28;20451;-81
2021/07/14 09:51:09;;;;;;;0.40;0.20;;;;;;;19.20;100.00;99673.50;5008165;28;20513;-81
2021/07/14 09:53:39;;;;;;;0.40;0.20;;;;;;;19.14;100.00;99677.47;5007273;28;20434;-81
2021/07/14 09:56:16;;;;;;;0.40;0.20;;;;;;;19.04;100.00;99692.59;5000950;28;20456;-81
2021/07/14 09:58:44;;;;;;;0.40;0.20;;;;;;;19.11;100.00;99688.50;5010822;28;20864;-81
2021/07/14 10:01:13;;;;;;;0.40;0.40;;;;;;;19.28;100.00;99672.91;5001280;28;20492;-80
2021/07/14 10:03:49;;;;;;;0.50;0.40;;;;;;;19.43;100.00;99677.16;5008160;28;20907;-81
2021/07/14 10:06:17;;;;;;;0.40;0.20;;;;;;;19.36;100.00;99673.22;5015675;28;21083;-80
2021/07/14 10:08:46;;;;;;;0.40;0.20;;;;;;;19.50;100.00;99667.63;5001922;28;20439;-80
2021/07/14 10:11:22;;;;;;;0.40;0.30;;;;;;;19.44;100.00;99668.94;5008024;28;20455;-81
2021/07/14 10:13:57;;;;;;;0.40;0.20;;;;;;;19.28;100.00;99671.06;5015006;28;20493;-80
2021/07/14 10:16:27;;;;;;;0.40;0.20;;;;;;;19.08;100.00;99686.03;5045176;28;20458;-81
2021/07/14 10:19:13;;;;;;;0.40;0.20;;;;;;;19.29;100.00;99683.56;5014476;28;20457;-81
2021/07/14 10:21:45;;;;;;;0.40;0.20;;;;;;;19.05;100.00;99683.56;5004457;28;20427;-80
2021/07/14 10:24:17;;;;;;;0.40;0.20;;;;;;;19.10;100.00;99686.78;5014608;28;20502;-80
2021/07/14 10:26:51;;;;;;;0.40;0.30;;;;;;;18.91;100.00;99686.38;5000390;28;20459;-81
2021/07/14 10:29:19;;;;;;;0.40;0.20;;;;;;;18.83;100.00;99678.88;5013469;28;20442;-81
2021/07/14 10:31:50;;;;;;;0.40;0.20;;;;;;;18.75;100.00;99680.38;5009804;28;20948;-81
2021/07/14 10:34:20;;;;;;;0.40;0.20;;;;;;;18.78;100.00;99685.56;5010361;28;20884;-81
2021/07/14 10:36:52;;;;;;;0.40;0.20;;;;;;;18.68;100.00;99671.03;5038048;28;20869;-81
2021/07/14 10:39:22;;;;;;;0.40;0.20;;;;;;;18.71;100.00;99674.38;5002839;28;20485;-81
2021/07/14 10:41:49;;;;;;;0.40;0.20;;;;;;;18.60;100.00;99674.25;5009392;28;20452;-81
2021/07/14 10:44:19;;;;;;;0.40;0.20;;;;;;;18.68;100.00;99687.19;5005868;28;20453;-81
2021/07/14 10:46:46;;;;;;;0.40;0.30;;;;;;;18.69;100.00;99688.91;5044374;28;20472;-81
2021/07/14 10:49:16;;;;;;;0.40;0.20;;;;;;;18.71;100.00;99695.06;5043459;28;20776;-81
2021/07/14 10:51:42;;;;;;;0.40;0.20;;;;;;;18.65;100.00;99693.66;5007353;28;20489;-81
2021/07/14 10:54:12;;;;;;;0.40;0.20;;;;;;;18.68;100.00;99698.81;4998664;28;20480;-81
2021/07/14 10:56:45;;;;;;;0.40;0.20;;;;;;;18.64;100.00;99689.25;5010826;28;20447;-81
2021/07/14 10:59:13;;;;;;;0.40;0.20;;;;;;;18.57;100.00;99694.16;5016224;28;20432;-80
2021/07/14 11:01:45;;;;;;;0.40;0.30;;;;;;;18.60;100.00;99696.63;5011960;28;20423;-81
2021/07/14 11:04:19;;;;;;;0.40;0.20;;;;;;;18.67;100.00;99686.34;5045956;28;20463;-81
2021/07/14 11:06:56;;;;;;;0.40;0.30;;;;;;;18.74;100.00;99695.69;5000346;28;21001;-80
2021/07/14 11:09:45;;;;;;;0.40;0.20;;;;;;;18.61;100.00;99692.97;5006567;28;20427;-81
2021/07/14 11:12:29;;;;;;;0.40;0.20;;;;;;;18.61;100.00;99702.88;4993587;28;20460;-81
2021/07/14 11:14:58;;;;;;;0.40;0.20;;;;;;;18.67;100.00;99707.03;5010538;28;20448;-81
2021/07/14 11:17:29;;;;;;;0.40;0.20;;;;;;;18.72;100.00;99707.53;5014462;28;20531;-81
2021/07/14 11:20:07;;;;;;;0.40;0.30;;;;;;;18.79;100.00;99703.44;5009162;28;20920;-81
2021/07/14 11:22:33;;;;;;;0.40;0.20;;;;;;;18.77;100.00;99706.22;5014668;28;20494;-81
2021/07/14 11:25:01;;;;;;;0.40;0.20;;;;;;;18.88;100.00;99709.00;5005047;28;20452;-82
2021/07/14 11:27:27;;;;;;;0.40;0.20;;;;;;;19.06;100.00;99706.84;5046973;28;20488;-80
2021/07/14 11:30:00;;;;;;;0.40;0.20;;;;;;;19.09;100.00;99709.31;5047029;28;20460;-81
2021/07/14 11:32:33;;;;;;;0.40;0.20;;;;;;;19.23;100.00;99711.84;5043483;28;20519;-80
2021/07/14 11:35:00;;;;;;;0.70;0.70;;;;;;;19.02;100.00;99717.94;5006629;28;20459;-81
2021/07/14 11:37:39;;;;;;;0.40;0.30;;;;;;;19.07;100.00;99724.72;5008016;28;20526;-81
2021/07/14 11:40:18;;;;;;;0.40;0.20;;;;;;;18.99;100.00;99723.53;5036898;28;20457;-80
2021/07/14 11:42:49;;;;;;;0.40;0.20;;;;;;;18.91;100.00;99716.00;5009296;28;20461;-80
2021/07/14 11:45:20;;;;;;;0.40;0.20;;;;;;;19.04;100.00;99718.69;4999664;28;20452;-81